Time;durP1;ratioP1;P1;durP2;ratioP2;P2;SDS_P1;SDS_P2;PMS_P1;PMS_P2;Temp;Humidity;BMP_temperature;BMP_pressure;BME280_temperature;BME280_humidity;BME280_pressure;Samples;Min_cycle;Max_cycle;Signal;HPM_P1;HPM_P2
2023/04/04 00:00:53;;;;;;;16.08;13.20;;;;;;;9.62;68.18;99685.25;5035051;28;20067;-63
2023/04/04 00:03:18;;;;;;;18.88;14.20;;;;;;;9.61;68.37;99688.06;5035228;28;20034;-63
2023/04/04 00:05:44;;;;;;;17.23;14.05;;;;;;;9.60;68.48;99697.88;5035283;28;20061;-62
2023/04/04 00:08:10;;;;;;;19.55;14.25;;;;;;;9.62;68.74;99693.25;5034538;28;20029;-64
2023/04/04 00:10:35;;;;;;;18.60;13.38;;;;;;;9.74;67.72;99698.63;5016715;28;20026;-64
2023/04/04 00:13:01;;;;;;;17.42;13.30;;;;;;;9.66;67.70;99698.38;5015525;28;20030;-62
2023/04/04 00:15:27;;;;;;;16.15;13.15;;;;;;;9.58;68.28;99696.31;5015311;28;20100;-62
2023/04/04 00:17:52;;;;;;;20.50;13.60;;;;;;;9.41;68.25;99661.06;5026772;28;20033;-62
2023/04/04 00:20:18;;;;;;;17.55;13.48;;;;;;;9.57;67.85;99694.63;5032967;28;20109;-62
2023/04/04 00:22:43;;;;;;;18.92;13.00;;;;;;;9.61;67.52;99696.06;5033643;28;20033;-62
2023/04/04 00:25:09;;;;;;;15.57;13.00;;;;;;;9.28;68.27;99652.31;5034041;28;20091;-64
2023/04/04 00:27:35;;;;;;;16.13;13.00;;;;;;;9.47;67.96;99689.13;5034846;28;20041;-61
2023/04/04 00:30:01;;;;;;;19.17;13.35;;;;;;;9.45;68.65;99688.41;5021623;28;20061;-63
2023/04/04 00:32:26;;;;;;;17.52;12.85;;;;;;;9.43;68.44;99679.66;5014211;28;20524;-63
2023/04/04 00:34:52;;;;;;;16.75;13.20;;;;;;;9.41;68.36;99678.94;5014654;28;20128;-62
2023/04/04 00:37:18;;;;;;;20.88;13.38;;;;;;;9.43;68.79;99687.69;5013765;28;20033;-62
2023/04/04 00:39:43;;;;;;;16.77;13.15;;;;;;;9.44;68.17;99692.88;5025542;28;20364;-62
2023/04/04 00:42:09;;;;;;;17.33;13.18;;;;;;;9.02;68.52;99626.66;5017520;28;20041;-64
2023/04/04 00:44:35;;;;;;;17.10;13.45;;;;;;;9.33;68.63;99693.72;5033603;28;20098;-63
2023/04/04 00:47:01;;;;;;;19.45;13.52;;;;;;;9.09;68.93;99653.75;5034636;28;20029;-62
2023/04/04 00:49:27;;;;;;;18.20;13.35;;;;;;;9.25;68.79;99681.94;5013766;28;20034;-62
2023/04/04 00:51:53;;;;;;;23.48;14.15;;;;;;;9.17;69.00;99682.53;5014277;28;20049;-61
2023/04/04 00:54:19;;;;;;;20.95;14.55;;;;;;;9.01;69.01;99662.34;5014406;28;20103;-62
2023/04/04 00:56:46;;;;;;;22.10;13.63;;;;;;;9.09;69.38;99684.94;5014464;28;20361;-61
2023/04/04 00:59:12;;;;;;;20.95;14.30;;;;;;;9.08;69.44;99688.56;5014006;28;20032;-62
2023/04/04 01:01:37;;;;;;;18.50;14.05;;;;;;;8.87;69.63;99654.53;5014727;28;20037;-63
2023/04/04 01:04:03;;;;;;;22.27;14.07;;;;;;;9.00;69.81;99681.16;5014191;28;20037;-62
2023/04/04 01:06:29;;;;;;;18.80;14.27;;;;;;;8.95;69.93;99678.84;5013451;28;20462;-61
2023/04/04 01:08:55;;;;;;;26.92;14.13;;;;;;;8.99;69.98;99690.13;5020556;28;20438;-61
2023/04/04 01:11:20;;;;;;;19.38;13.73;;;;;;;8.98;69.95;99683.09;5033066;28;20029;-62
2023/04/04 01:13:47;;;;;;;18.92;13.50;;;;;;;9.01;69.86;99693.53;5033805;28;20091;-62
2023/04/04 01:16:12;;;;;;;18.63;14.20;;;;;;;9.05;70.04;99690.50;5032984;28;20025;-61
2023/04/04 01:18:40;;;;;;;21.35;14.10;;;;;;;9.08;69.48;99689.44;5029123;28;20369;-62
2023/04/04 01:21:10;;;;;;;20.08;13.93;;;;;;;9.12;69.72;99684.69;5013352;28;20030;-60
2023/04/04 01:24:02;;;;;;;19.27;13.93;;;;;;;9.18;69.70;99678.91;5014042;28;20519;-62
2023/04/04 01:26:28;;;;;;;22.60;14.18;;;;;;;9.05;69.08;99685.19;5014077;28;20120;-62
2023/04/04 01:28:55;;;;;;;21.08;14.25;;;;;;;8.99;69.26;99679.44;5019646;28;20115;-61
2023/04/04 01:31:26;;;;;;;18.52;14.00;;;;;;;9.01;69.77;99686.38;5033693;28;20029;-62
2023/04/04 01:34:23;;;;;;;19.10;14.23;;;;;;;8.78;69.80;99639.22;5033365;28;20095;-60
2023/04/04 01:37:00;;;;;;;19.50;14.50;;;;;;;8.94;69.62;99677.16;5032797;28;20029;-60
2023/04/04 01:39:31;;;;;;;19.02;13.93;;;;;;;8.87;69.61;99675.91;5021132;28;20096;-61
2023/04/04 01:41:58;;;;;;;18.40;13.95;;;;;;;8.80;69.85;99664.00;5013724;28;20072;-61
2023/04/04 01:44:25;;;;;;;20.13;14.63;;;;;;;8.79;70.01;99673.81;5013656;28;20233;-62
2023/04/04 01:46:54;;;;;;;20.02;14.57;;;;;;;8.83;70.05;99679.78;5013612;28;20519;-62
2023/04/04 01:49:23;;;;;;;19.63;14.57;;;;;;;8.83;70.03;99685.09;5022838;28;20037;-61
2023/04/04 01:51:50;;;;;;;18.40;14.23;;;;;;;8.84;70.01;99681.47;5032936;28;20057;-62
2023/04/04 01:54:17;;;;;;;20.05;13.85;;;;;;;8.87;69.87;99683.91;5038174;28;20048;-62
2023/04/04 01:56:43;;;;;;;22.75;14.05;;;;;;;8.90;69.77;99683.66;5043851;28;20029;-63
2023/04/04 01:59:09;;;;;;;17.88;13.85;;;;;;;8.91;69.63;99685.38;5038959;28;20033;-61
2023/04/04 02:01:35;;;;;;;20.60;14.18;;;;;;;8.90;69.50;99675.66;5043089;28;20462;-62
2023/04/04 02:04:01;;;;;;;18.38;13.15;;;;;;;8.95;69.39;99673.50;5041471;28;20025;-62
2023/04/04 02:06:28;;;;;;;18.70;14.02;;;;;;;8.97;69.63;99682.25;5041812;28;20031;-61
2023/04/04 02:08:53;;;;;;;17.80;13.95;;;;;;;8.86;69.32;99653.69;5039819;28;20029;-62
2023/04/04 02:11:21;;;;;;;17.48;13.80;;;;;;;9.05;69.34;99673.66;5038145;28;20029;-62
2023/04/04 02:13:48;;;;;;;18.60;13.98;;;;;;;9.10;69.47;99681.28;5032985;28;20125;-61
2023/04/04 02:16:14;;;;;;;18.25;13.98;;;;;;;9.12;68.42;99682.91;5033323;28;20087;-63
2023/04/04 02:18:40;;;;;;;17.17;14.57;;;;;;;9.14;68.60;99680.09;5032418;28;20033;-62
2023/04/04 02:21:05;;;;;;;18.65;14.85;;;;;;;9.07;68.75;99674.38;5024282;28;20129;-62
2023/04/04 02:23:31;;;;;;;19.30;14.63;;;;;;;8.84;68.91;99642.28;5015524;28;20088;-61
2023/04/04 02:25:56;;;;;;;20.65;14.18;;;;;;;8.82;69.13;99654.91;5026509;28;20037;-60
2023/04/04 02:28:22;;;;;;;20.40;14.68;;;;;;;8.86;69.17;99667.06;5030902;28;20056;-63
2023/04/04 02:30:47;;;;;;;19.70;14.55;;;;;;;8.89;69.41;99674.81;5012886;28;20108;-62
2023/04/04 02:33:13;;;;;;;20.10;14.18;;;;;;;8.93;69.13;99680.78;5013467;28;20445;-61
2023/04/04 02:35:38;;;;;;;19.95;14.82;;;;;;;8.92;69.44;99676.38;5013182;28;20045;-61
2023/04/04 02:38:03;;;;;;;18.92;14.73;;;;;;;8.91;69.22;99677.34;5014321;28;20080;-61
2023/04/04 02:40:29;;;;;;;18.23;14.90;;;;;;;8.90;68.96;99676.53;5032282;28;20036;-61
2023/04/04 02:42:54;;;;;;;21.88;15.45;;;;;;;8.85;69.32;99673.34;5032658;28;20090;-61
2023/04/04 02:45:20;;;;;;;20.92;15.05;;;;;;;8.86;69.31;99682.19;5032651;28;20029;-61
2023/04/04 02:47:51;;;;;;;18.92;14.45;;;;;;;8.86;69.21;99675.06;5033206;28;20030;-61
2023/04/04 02:50:17;;;;;;;19.67;15.25;;;;;;;8.66;69.26;99657.88;5015602;28;20050;-61
2023/04/04 02:52:43;;;;;;;21.75;15.18;;;;;;;8.60;69.30;99647.66;5016633;28;20453;-61
2023/04/04 02:55:09;;;;;;;18.55;14.40;;;;;;;8.81;69.54;99676.38;5016988;28;20049;-62
2023/04/04 02:57:35;;;;;;;19.88;14.85;;;;;;;8.80;69.34;99677.34;5033436;28;20080;-61
2023/04/04 03:00:03;;;;;;;19.90;15.32;;;;;;;8.80;69.12;99669.31;5035630;28;20033;-61
2023/04/04 03:02:29;;;;;;;18.10;14.50;;;;;;;8.84;69.46;99677.00;5036340;28;20029;-62
2023/04/04 03:04:55;;;;;;;19.63;15.02;;;;;;;8.84;69.62;99668.13;5036784;28;20095;-62
2023/04/04 03:07:21;;;;;;;21.23;14.63;;;;;;;8.83;69.28;99666.41;5036414;28;20025;-62
2023/04/04 03:09:47;;;;;;;20.25;14.55;;;;;;;8.87;69.13;99674.09;5021048;28;20038;-65
2023/04/04 03:12:13;;;;;;;19.05;14.05;;;;;;;8.86;68.92;99669.72;5017123;28;20033;-61
2023/04/04 03:14:39;;;;;;;19.50;14.70;;;;;;;8.88;69.08;99680.25;5016725;28;20048;-62
2023/04/04 03:17:06;;;;;;;20.20;14.68;;;;;;;8.90;69.15;99679.19;5016535;28;20069;-61
2023/04/04 03:19:32;;;;;;;18.52;14.82;;;;;;;9.00;68.70;99676.66;5028975;28;20400;-62
2023/04/04 03:21:57;;;;;;;20.80;13.68;;;;;;;9.03;68.26;99683.56;5036299;28;20037;-61
2023/04/04 03:24:22;;;;;;;20.00;14.68;;;;;;;9.09;67.59;99682.28;5036311;28;20108;-61
2023/04/04 03:26:48;;;;;;;20.20;14.90;;;;;;;9.03;68.21;99687.13;5036075;28;20470;-63
2023/04/04 03:29:14;;;;;;;19.95;15.13;;;;;;;9.02;68.12;99685.41;5024496;28;20030;-62
2023/04/04 03:31:40;;;;;;;19.58;14.00;;;;;;;8.97;68.23;99692.94;5016416;28;20046;-62
2023/04/04 03:34:05;;;;;;;20.92;14.80;;;;;;;8.96;68.30;99691.22;5015941;28;20037;-61
2023/04/04 03:36:31;;;;;;;21.02;14.82;;;;;;;8.86;68.44;99669.72;5015869;28;20507;-62
2023/04/04 03:38:56;;;;;;;21.00;15.15;;;;;;;9.05;68.76;99689.69;5026805;28;20345;-61
2023/04/04 03:41:22;;;;;;;20.10;15.23;;;;;;;9.16;67.84;99694.16;5034530;28;20407;-62
2023/04/04 03:43:47;;;;;;;21.35;14.82;;;;;;;9.14;67.57;99690.78;5020132;28;20087;-62
2023/04/04 03:46:13;;;;;;;18.80;14.15;;;;;;;9.11;67.72;99680.31;5014847;28;20036;-62
2023/04/04 03:48:39;;;;;;;19.40;14.60;;;;;;;9.11;68.08;99678.53;4998760;28;20029;-63
2023/04/04 03:51:04;;;;;;;19.00;15.23;;;;;;;9.09;67.84;99695.63;5015809;28;20115;-62
2023/04/04 03:53:31;;;;;;;21.63;15.25;;;;;;;9.09;67.87;99693.81;5015540;28;20049;-62
2023/04/04 03:55:56;;;;;;;25.35;15.88;;;;;;;9.10;68.16;99694.66;5015796;28;20030;-62
2023/04/04 03:58:22;;;;;;;22.42;15.10;;;;;;;9.12;67.89;99698.06;5020088;28;20432;-62
2023/04/04 04:00:48;;;;;;;20.88;14.88;;;;;;;9.14;67.92;99696.13;5034740;28;20037;-62
2023/04/04 04:03:14;;;;;;;21.60;14.98;;;;;;;9.19;67.79;99686.78;5035116;28;20041;-63
2023/04/04 04:05:40;;;;;;;20.77;14.90;;;;;;;9.22;67.55;99680.38;5035398;28;20083;-62
2023/04/04 04:08:05;;;;;;;21.13;15.23;;;;;;;9.23;67.26;99682.06;5032177;28;20033;-61
2023/04/04 04:10:32;;;;;;;21.35;14.45;;;;;;;9.21;67.12;99659.97;5015384;28;20480;-61
2023/04/04 04:12:57;;;;;;;21.75;14.95;;;;;;;9.50;66.19;99691.56;5015383;28;20094;-62
2023/04/04 04:15:23;;;;;;;20.02;14.88;;;;;;;9.55;66.28;99689.38;5015137;28;20112;-62
2023/04/04 04:17:48;;;;;;;19.30;14.25;;;;;;;9.67;65.58;99689.41;5015265;28;20064;-63
2023/04/04 04:20:14;;;;;;;21.98;14.88;;;;;;;9.78;65.78;99686.72;5015525;28;20029;-61
2023/04/04 04:22:47;;;;;;;19.45;14.80;;;;;;;9.89;65.46;99681.38;5015503;28;20085;-62
2023/04/04 04:25:13;;;;;;;22.48;14.43;;;;;;;10.07;65.01;99693.38;5014213;28;20087;-62
2023/04/04 04:27:39;;;;;;;17.23;14.10;;;;;;;10.19;64.67;99690.56;5015095;28;20026;-62
2023/04/04 04:30:06;;;;;;;18.98;13.70;;;;;;;10.32;63.54;99701.09;5033183;28;20041;-64
2023/04/04 04:32:31;;;;;;;18.23;14.25;;;;;;;10.50;63.23;99691.72;5034759;28;20044;-63
2023/04/04 04:34:57;;;;;;;19.52;14.18;;;;;;;10.66;62.79;99694.84;5034500;28;20041;-62
2023/04/04 04:37:24;;;;;;;21.70;13.45;;;;;;;10.87;61.89;99689.50;5034688;28;20037;-64
2023/04/04 04:39:51;;;;;;;17.33;12.80;;;;;;;11.23;60.76;99689.19;5018746;28;20040;-62
2023/04/04 04:42:16;;;;;;;17.67;13.38;;;;;;;11.66;59.59;99687.28;5015002;28;20449;-62
2023/04/04 04:44:42;;;;;;;19.45;12.95;;;;;;;12.29;57.62;99680.88;5014634;28;20030;-61
2023/04/04 04:47:07;;;;;;;16.35;12.85;;;;;;;12.84;55.93;99681.34;5013983;28;20190;-62
2023/04/04 04:49:33;;;;;;;18.13;13.05;;;;;;;13.22;54.66;99687.66;5028165;28;20448;-62
2023/04/04 04:51:59;;;;;;;16.20;12.52;;;;;;;13.42;53.96;99687.59;5034128;28;20131;-62
2023/04/04 04:54:24;;;;;;;18.58;12.55;;;;;;;13.66;53.29;99680.91;5034136;28;20037;-62
2023/04/04 04:56:49;;;;;;;14.50;11.88;;;;;;;13.74;52.29;99684.56;5034103;28;20083;-62
2023/04/04 04:59:15;;;;;;;15.85;11.90;;;;;;;13.71;52.50;99692.06;5023336;28;20038;-63
2023/04/04 05:01:40;;;;;;;15.88;11.07;;;;;;;13.62;52.27;99675.81;5014358;28;20344;-64
2023/04/04 05:04:06;;;;;;;14.80;11.68;;;;;;;13.68;52.70;99673.53;5014264;28;20124;-63
2023/04/04 05:06:31;;;;;;;13.70;11.52;;;;;;;14.02;51.71;99681.88;5014172;28;20061;-63
2023/04/04 05:08:57;;;;;;;15.23;11.27;;;;;;;14.50;50.80;99679.03;5022150;28;20085;-63
2023/04/04 05:11:22;;;;;;;12.90;10.63;;;;;;;15.15;48.20;99659.06;5033841;28;20060;-62
2023/04/04 05:13:47;;;;;;;14.68;11.52;;;;;;;16.06;46.19;99672.22;5033874;28;20121;-62
2023/04/04 05:16:13;;;;;;;15.80;11.48;;;;;;;17.10;43.97;99673.72;5033864;28;20033;-62
2023/04/04 05:18:38;;;;;;;14.18;11.52;;;;;;;17.61;42.55;99659.94;5028023;28;20069;-64
2023/04/04 05:21:04;;;;;;;13.38;11.13;;;;;;;17.88;41.80;99661.38;5014211;28;20030;-63
2023/04/04 05:23:29;;;;;;;12.75;10.73;;;;;;;18.08;41.11;99655.53;5014166;28;20026;-64
2023/04/04 05:25:55;;;;;;;17.52;10.85;;;;;;;18.80;39.63;99662.50;5014227;28;20029;-62
2023/04/04 05:28:22;;;;;;;11.90;10.18;;;;;;;19.53;38.38;99663.91;5016782;28;20048;-61
2023/04/04 05:30:47;;;;;;;15.00;10.50;;;;;;;20.74;35.91;99662.69;5033151;28;20075;-61
2023/04/04 05:33:13;;;;;;;13.77;10.02;;;;;;;22.64;32.61;99660.03;5033521;28;20049;-61
2023/04/04 05:35:40;;;;;;;14.13;10.80;;;;;;;23.37;31.00;99640.09;5032508;28;20071;-62
2023/04/04 05:38:05;;;;;;;11.40;10.07;;;;;;;23.06;31.35;99665.31;5029960;28;20399;-63
2023/04/04 05:40:31;;;;;;;11.45;9.45;;;;;;;22.48;32.04;99642.16;5013471;28;20033;-61
2023/04/04 05:42:58;;;;;;;11.70;10.18;;;;;;;22.25;33.05;99659.69;5013741;28;20037;-62
2023/04/04 05:45:24;;;;;;;11.07;9.55;;;;;;;22.08;32.85;99665.53;5013551;28;20030;-61
2023/04/04 05:47:50;;;;;;;12.90;10.93;;;;;;;21.58;33.44;99665.66;5013712;28;20025;-63
2023/04/04 05:50:16;;;;;;;14.93;10.63;;;;;;;21.06;34.34;99675.94;5031969;28;20046;-62
2023/04/04 05:52:41;;;;;;;13.45;10.23;;;;;;;20.49;35.06;99662.22;5033320;28;20119;-63
2023/04/04 05:55:07;;;;;;;13.23;10.38;;;;;;;20.12;36.00;99662.22;5033235;28;20132;-63
2023/04/04 05:57:33;;;;;;;11.60;10.50;;;;;;;19.76;36.37;99646.66;5032622;28;20456;-62
2023/04/04 05:59:58;;;;;;;11.77;10.57;;;;;;;19.54;36.76;99664.75;5016550;28;20034;-63
2023/04/04 06:02:24;;;;;;;12.68;10.45;;;;;;;19.13;37.56;99650.56;5013608;28;20030;-62
2023/04/04 06:04:49;;;;;;;17.67;11.45;;;;;;;18.89;38.00;99663.28;5013026;28;20119;-63
2023/04/04 06:07:15;;;;;;;11.65;10.32;;;;;;;18.83;37.65;99666.75;5013211;28;20518;-63
2023/04/04 06:09:41;;;;;;;14.52;10.68;;;;;;;18.66;38.05;99660.59;5026382;28;20068;-62
2023/04/04 06:12:10;;;;;;;14.13;10.57;;;;;;;18.53;38.22;99657.63;5031923;28;20029;-63
2023/04/04 06:14:35;;;;;;;19.30;10.82;;;;;;;18.59;37.98;99665.91;5032855;28;21348;-63
2023/04/04 06:17:02;;;;;;;14.80;10.27;;;;;;;19.17;36.77;99641.06;5032713;28;20029;-62
2023/04/04 06:19:27;;;;;;;18.38;10.98;;;;;;;21.49;33.25;99651.34;5021707;28;20213;-62
2023/04/04 06:21:53;;;;;;;11.63;9.65;;;;;;;23.88;29.19;99648.59;5012018;28;20057;-62
2023/04/04 06:24:18;;;;;;;10.85;9.73;;;;;;;25.82;26.59;99665.75;5011746;28;20032;-77
2023/04/04 06:26:44;;;;;;;14.82;9.63;;;;;;;25.94;25.66;99650.22;5032168;28;20048;-60
2023/04/04 06:29:09;;;;;;;10.45;9.20;;;;;;;25.02;26.79;99658.06;5030913;28;20429;-57
2023/04/04 06:31:35;;;;;;;11.23;9.05;;;;;;;24.72;26.71;99664.16;5032601;28;20115;-62
2023/04/04 06:34:01;;;;;;;9.60;8.60;;;;;;;25.19;26.23;99665.72;5024120;28;20124;-59
2023/04/04 06:36:26;;;;;;;10.50;9.40;;;;;;;26.11;24.93;99664.16;5013302;28;20039;-55
2023/04/04 06:38:52;;;;;;;11.25;9.70;;;;;;;26.56;24.08;99664.84;5012837;28;20449;-63
2023/04/04 06:41:17;;;;;;;10.25;9.15;;;;;;;27.91;23.04;99664.22;5012628;28;20065;-63
2023/04/04 06:43:45;;;;;;;12.27;9.57;;;;;;;29.49;20.73;99664.88;5012972;28;20041;-62
2023/04/04 06:46:11;;;;;;;14.98;9.23;;;;;;;30.02;20.29;99664.50;5028743;28;20038;-62
2023/04/04 06:48:37;;;;;;;10.98;8.82;;;;;;;30.56;19.81;99663.72;5032219;28;20026;-62
2023/04/04 06:51:06;;;;;;;16.55;9.43;;;;;;;32.17;18.60;99676.75;5032226;28;20107;-63
2023/04/04 06:53:33;;;;;;;12.15;8.85;;;;;;;32.90;16.99;99668.63;5032466;28;20033;-63
2023/04/04 06:55:59;;;;;;;13.10;8.80;;;;;;;34.02;16.36;99665.13;5029271;28;20464;-62
2023/04/04 06:58:25;;;;;;;9.88;8.85;;;;;;;34.02;16.37;99665.94;5012401;28;20077;-61
2023/04/04 07:00:50;;;;;;;14.40;8.52;;;;;;;33.41;16.57;99658.59;5012362;28;20080;-61
2023/04/04 07:03:16;;;;;;;13.27;8.73;;;;;;;34.53;15.46;99665.97;5012688;28;20068;-61
2023/04/04 07:05:41;;;;;;;13.07;8.80;;;;;;;35.03;14.79;99661.16;5011910;28;20034;-60
2023/04/04 07:08:08;;;;;;;14.15;9.18;;;;;;;34.25;15.16;99658.03;5012438;28;20034;-61
2023/04/04 07:10:33;;;;;;;15.30;9.00;;;;;;;33.15;16.34;99659.44;5024265;28;20053;-63
2023/04/04 07:12:59;;;;;;;14.32;8.98;;;;;;;31.38;17.82;99653.66;5032796;28;20065;-63
2023/04/04 07:15:25;;;;;;;13.05;9.10;;;;;;;29.67;19.21;99652.72;5032165;28;20457;-62
2023/04/04 07:17:51;;;;;;;11.48;8.35;;;;;;;30.34;19.14;99655.47;5032111;28;20053;-63
2023/04/04 07:20:16;;;;;;;10.27;8.60;;;;;;;32.36;16.86;99656.91;5032309;28;20025;-62
2023/04/04 07:22:43;;;;;;;12.63;9.05;;;;;;;34.09;15.24;99664.78;5030206;28;20083;-62
2023/04/04 07:25:09;;;;;;;12.30;8.63;;;;;;;33.45;15.92;99670.81;5017452;28;20030;-63
2023/04/04 07:27:35;;;;;;;11.18;8.80;;;;;;;31.84;17.20;99676.09;5022238;28;20033;-63
2023/04/04 07:30:00;;;;;;;14.00;9.38;;;;;;;29.78;19.00;99657.28;5013542;28;20053;-65
2023/04/04 07:32:26;;;;;;;14.07;9.93;;;;;;;28.23;20.72;99668.47;5011073;28;20445;-64
2023/04/04 07:34:52;;;;;;;16.48;9.27;;;;;;;26.83;22.05;99668.00;5012375;28;20058;-64
2023/04/04 07:37:17;;;;;;;11.77;9.65;;;;;;;25.62;23.55;99673.16;5015858;28;20030;-64
2023/04/04 07:39:43;;;;;;;19.00;9.85;;;;;;;24.63;24.77;99663.59;5031122;28;20040;-64
2023/04/04 07:42:09;;;;;;;16.38;10.20;;;;;;;23.87;25.50;99660.59;5035610;28;20040;-64
2023/04/04 07:44:35;;;;;;;16.17;10.43;;;;;;;23.40;26.87;99668.91;5035621;28;20032;-63
2023/04/04 07:47:00;;;;;;;16.77;11.02;;;;;;;22.89;27.71;99667.59;5028978;28;20038;-64
2023/04/04 07:49:26;;;;;;;17.15;10.52;;;;;;;22.53;28.52;99658.75;5016009;28;20116;-63
2023/04/04 07:51:51;;;;;;;22.35;11.27;;;;;;;22.34;29.00;99668.53;5020874;28;20037;-64
2023/04/04 07:54:17;;;;;;;14.07;11.32;;;;;;;21.75;29.18;99655.28;5034143;28;20060;-62
2023/04/04 07:56:42;;;;;;;25.50;11.48;;;;;;;21.51;30.04;99662.88;5015269;28;20041;-62
2023/04/04 07:59:08;;;;;;;21.50;11.73;;;;;;;21.59;29.69;99667.34;5020061;28;20120;-61
2023/04/04 08:01:33;;;;;;;21.48;12.63;;;;;;;22.16;29.66;99659.03;5020411;28;20432;-62
2023/04/04 08:03:59;;;;;;;14.85;11.85;;;;;;;22.40;28.76;99654.06;5016757;28;20032;-63
2023/04/04 08:06:25;;;;;;;18.50;12.75;;;;;;;22.27;29.12;99660.31;5034191;28;20039;-64
2023/04/04 08:08:51;;;;;;;18.65;12.05;;;;;;;22.23;29.44;99667.25;5037913;28;20090;-62
2023/04/04 08:11:17;;;;;;;20.10;12.02;;;;;;;22.29;29.46;99657.41;5043343;28;20461;-61
2023/04/04 08:13:42;;;;;;;21.92;12.32;;;;;;;22.17;29.30;99662.59;5043002;28;20120;-63
2023/04/04 08:16:08;;;;;;;18.38;12.10;;;;;;;22.23;29.70;99662.66;5042842;28;20116;-62
2023/04/04 08:18:33;;;;;;;19.08;12.27;;;;;;;22.22;29.35;99665.56;5043884;28;20439;-61
2023/04/04 08:20:59;;;;;;;23.60;12.35;;;;;;;22.16;29.56;99655.47;5042883;28;20053;-62
2023/04/04 08:23:25;;;;;;;21.70;12.05;;;;;;;22.13;29.42;99667.63;5045266;28;20044;-62
2023/04/04 08:25:51;;;;;;;20.15;12.10;;;;;;;21.99;29.74;99663.19;5033414;28;20409;-63
2023/04/04 08:28:16;;;;;;;19.90;12.43;;;;;;;21.73;30.23;99648.38;5015063;28;20026;-64
2023/04/04 08:30:42;;;;;;;30.23;13.00;;;;;;;21.76;30.29;99661.59;5014971;28;20045;-64
2023/04/04 08:33:08;;;;;;;18.50;13.57;;;;;;;21.69;30.47;99655.25;5014926;28;20033;-62
2023/04/04 08:35:33;;;;;;;21.92;12.55;;;;;;;21.39;30.77;99650.03;5015011;28;20052;-64
2023/04/04 08:38:01;;;;;;;20.42;12.23;;;;;;;21.01;31.28;99627.56;5014958;28;20034;-65
2023/04/04 08:40:29;;;;;;;23.40;11.68;;;;;;;20.91;31.70;99644.22;5014753;28;20026;-65
2023/04/04 08:42:56;;;;;;;26.10;12.88;;;;;;;20.98;31.77;99659.78;5014913;28;20030;-65
2023/04/04 08:45:24;;;;;;;22.23;12.45;;;;;;;20.89;31.84;99661.78;5026851;28;20091;-64
2023/04/04 08:47:52;;;;;;;20.10;12.50;;;;;;;20.84;31.79;99658.81;5016832;28;20345;-65
2023/04/04 08:50:18;;;;;;;24.88;11.77;;;;;;;20.69;32.08;99656.13;5027227;28;20052;-64
2023/04/04 08:52:45;;;;;;;18.80;10.90;;;;;;;20.56;31.26;99662.28;5041212;28;20037;-61
2023/04/04 08:55:11;;;;;;;17.92;10.32;;;;;;;20.43;31.42;99660.28;5039796;28;20065;-61
2023/04/04 08:57:38;;;;;;;15.75;9.07;;;;;;;20.10;31.37;99652.56;5043329;28;20022;-60
2023/04/04 09:00:05;;;;;;;14.00;8.80;;;;;;;19.88;31.56;99656.03;5042235;28;20040;-62
2023/04/04 09:03:16;;;;;;;17.27;8.63;;;;;;;19.80;31.64;99669.72;5039751;28;20361;-62
2023/04/04 09:05:43;;;;;;;10.13;8.55;;;;;;;19.53;31.99;99674.75;5036725;28;20511;-63
2023/04/04 09:08:11;;;;;;;11.05;7.60;;;;;;;19.38;31.91;99665.78;5037434;28;20037;-65
2023/04/04 09:10:37;;;;;;;16.08;7.15;;;;;;;19.19;32.14;99676.13;5040116;28;20052;-63
2023/04/04 09:13:03;;;;;;;13.65;7.10;;;;;;;18.83;32.54;99647.75;5039521;28;20021;-62
2023/04/04 09:15:28;;;;;;;15.48;7.30;;;;;;;18.62;32.77;99678.28;5041066;28;20517;-63
2023/04/04 09:17:54;;;;;;;8.98;5.28;;;;;;;18.31;32.48;99639.31;5040667;28;20050;-63
2023/04/04 09:20:40;;;;;;;12.73;5.95;;;;;;;18.64;32.47;99681.63;5037941;28;20068;-63
2023/04/04 09:23:17;;;;;;;10.30;5.40;;;;;;;18.57;32.23;99680.69;5039700;28;20087;-64
2023/04/04 09:25:52;;;;;;;15.00;5.93;;;;;;;18.37;32.32;99681.13;5040482;28;20029;-63
2023/04/04 09:28:20;;;;;;;13.60;6.10;;;;;;;18.25;32.35;99677.13;5035708;28;20033;-64
2023/04/04 09:30:52;;;;;;;13.00;5.45;;;;;;;18.33;32.14;99674.38;5040950;28;20045;-62
2023/04/04 09:33:20;;;;;;;11.77;5.25;;;;;;;17.97;33.06;99685.69;5036196;28;20048;-63
2023/04/04 09:35:53;;;;;;;10.70;5.40;;;;;;;18.00;32.87;99685.34;5039079;28;20067;-63
2023/04/04 09:38:22;;;;;;;9.82;4.78;;;;;;;18.19;31.88;99673.25;5041649;28;20029;-64
2023/04/04 09:40:47;;;;;;;7.25;4.65;;;;;;;18.35;31.86;99673.16;5041477;28;20029;-65
2023/04/04 09:43:13;;;;;;;9.50;3.97;;;;;;;18.61;30.68;99682.84;5041470;28;20120;-63
2023/04/04 09:45:41;;;;;;;13.88;3.83;;;;;;;18.69;30.22;99683.78;5042598;28;20025;-62
2023/04/04 09:48:08;;;;;;;11.40;4.45;;;;;;;18.85;30.16;99689.09;5037152;28;20021;-61
2023/04/04 09:50:35;;;;;;;11.40;4.43;;;;;;;18.92;30.26;99679.19;5039531;28;20045;-64
2023/04/04 09:53:00;;;;;;;13.80;4.82;;;;;;;18.89;30.41;99689.59;5040502;28;20069;-63
2023/04/04 09:55:35;;;;;;;17.25;5.72;;;;;;;19.01;30.66;99687.31;5052387;28;20079;-64
2023/04/04 09:58:12;;;;;;;14.65;4.90;;;;;;;19.11;30.67;99689.78;5015610;28;20463;-64
2023/04/04 10:00:47;;;;;;;10.05;5.53;;;;;;;19.18;30.31;99686.16;5031954;28;20452;-64
2023/04/04 10:03:14;;;;;;;15.68;6.43;;;;;;;19.10;30.48;99696.25;5031296;28;20029;-62
2023/04/04 10:05:40;;;;;;;12.52;5.93;;;;;;;18.80;30.88;99662.50;5013721;28;20317;-67
2023/04/04 10:08:13;;;;;;;10.40;6.43;;;;;;;19.05;31.00;99694.94;5013465;28;20452;-61
2023/04/04 10:10:49;;;;;;;10.82;6.45;;;;;;;19.10;30.94;99696.25;5012812;28;20036;-63
2023/04/04 10:13:27;;;;;;;12.02;5.70;;;;;;;19.18;30.39;99691.59;5026780;28;20334;-63
2023/04/04 10:15:56;;;;;;;12.35;5.90;;;;;;;19.16;30.33;99696.31;5031942;28;20055;-63
2023/04/04 10:18:26;;;;;;;12.77;5.82;;;;;;;19.33;30.47;99688.03;5032698;28;20037;-62
2023/04/04 10:20:53;;;;;;;11.65;5.53;;;;;;;19.45;30.04;99696.59;5032257;28;20021;-62
2023/04/04 10:23:22;;;;;;;9.63;4.80;;;;;;;19.51;30.03;99688.53;5032323;28;20044;-62
2023/04/04 10:25:51;;;;;;;10.57;5.07;;;;;;;19.55;30.06;99694.47;5027685;28;20040;-62
2023/04/04 10:28:17;;;;;;;8.60;5.22;;;;;;;19.56;30.28;99682.56;5019937;28;20029;-63
2023/04/04 10:30:50;;;;;;;15.32;5.10;;;;;;;19.64;29.96;99689.75;5025531;28;20063;-62
2023/04/04 10:33:40;;;;;;;10.40;5.15;;;;;;;19.51;30.42;99693.13;5026076;28;20104;-62
2023/04/04 10:36:08;;;;;;;10.48;5.20;;;;;;;19.08;30.76;99694.56;5017789;28;20085;-62
2023/04/04 10:38:47;;;;;;;12.75;5.65;;;;;;;18.54;31.23;99643.91;5012893;28;20029;-61
2023/04/04 10:41:13;;;;;;;13.02;5.47;;;;;;;18.59;31.58;99690.31;5014173;28;20507;-63
2023/04/04 10:43:43;;;;;;;15.05;5.32;;;;;;;18.45;31.90;99667.53;5013588;28;20087;-68
2023/04/04 10:46:16;;;;;;;14.40;5.07;;;;;;;18.72;31.24;99686.16;5012623;28;20107;-66
2023/04/04 10:48:43;;;;;;;12.40;5.53;;;;;;;18.76;31.14;99701.88;5012732;28;20038;-67
2023/04/04 10:51:10;;;;;;;13.52;5.03;;;;;;;18.82;31.00;99705.75;5042653;28;20448;-69
2023/04/04 10:53:38;;;;;;;10.20;5.53;;;;;;;18.88;31.09;99701.47;5042173;28;20511;-62
2023/04/04 10:56:04;;;;;;;14.82;5.78;;;;;;;19.04;30.53;99709.50;5040479;28;20132;-60
2023/04/04 10:58:29;;;;;;;12.98;5.35;;;;;;;18.96;30.61;99690.53;5037251;28;20060;-64
2023/04/04 11:00:56;;;;;;;10.32;5.22;;;;;;;19.00;30.78;99702.75;5040714;28;20022;-63
2023/04/04 11:03:23;;;;;;;12.50;4.95;;;;;;;19.00;30.30;99700.03;5040740;28;20024;-63
2023/04/04 11:05:50;;;;;;;9.98;4.90;;;;;;;18.86;30.22;99688.06;5039148;28;20040;-63
2023/04/04 11:08:18;;;;;;;10.27;4.38;;;;;;;18.70;30.78;99683.63;5044692;28;20040;-63
2023/04/04 11:10:47;;;;;;;9.73;4.78;;;;;;;18.57;30.94;99683.41;5016436;28;20046;-64
2023/04/04 11:13:25;;;;;;;16.33;4.75;;;;;;;18.56;31.05;99687.09;5016045;28;20040;-62
2023/04/04 11:16:06;;;;;;;7.70;4.90;;;;;;;18.46;31.33;99690.91;5019025;28;20224;-63
2023/04/04 11:18:31;;;;;;;8.95;5.43;;;;;;;18.35;31.37;99685.91;5036241;28;20129;-63
2023/04/04 11:21:00;;;;;;;13.65;5.32;;;;;;;18.47;31.26;99689.03;5036104;28;20117;-65
2023/04/04 11:23:27;;;;;;;10.43;4.82;;;;;;;18.57;30.96;99696.94;5035503;28;20034;-64